Time;durP1;ratioP1;P1;durP2;ratioP2;P2;SDS_P1;SDS_P2;PMS_P1;PMS_P2;Temp;Humidity;BMP_temperature;BMP_pressure;BME280_temperature;BME280_humidity;BME280_pressure;Samples;Min_cycle;Max_cycle;Signal;HPM_P1;HPM_P2
2022/06/26 00:01:45;;;;;;;;;;;24.80;99.90;;;;;;5107578;28;19908;-67
2022/06/26 00:04:11;;;;;;;;;;;24.80;99.90;;;;;;5114304;28;19915;-68
2022/06/26 00:06:37;;;;;;;;;;;24.60;99.90;;;;;;5115686;28;19904;-68
2022/06/26 00:09:04;;;;;;;;;;;24.60;99.90;;;;;;5117288;28;20381;-69
2022/06/26 00:11:29;;;;;;;;;;;24.60;99.90;;;;;;5112554;28;20041;-69
2022/06/26 00:13:55;;;;;;;;;;;24.60;99.90;;;;;;5109601;28;19907;-70
2022/06/26 00:16:21;;;;;;;;;;;24.60;99.90;;;;;;5118875;28;20354;-68
2022/06/26 00:18:47;;;;;;;;;;;24.60;99.90;;;;;;5115053;28;19915;-68
2022/06/26 00:21:13;;;;;;;;;;;24.60;99.90;;;;;;5111558;28;20376;-69
2022/06/26 00:23:38;;;;;;;;;;;24.60;99.90;;;;;;5113086;28;19995;-69
2022/06/26 00:26:04;;;;;;;;;;;24.60;99.90;;;;;;5112930;28;19914;-68
2022/06/26 00:28:30;;;;;;;;;;;24.50;99.90;;;;;;5110289;28;19978;-69
2022/06/26 00:30:56;;;;;;;;;;;24.60;99.90;;;;;;5104548;28;20414;-69
2022/06/26 00:33:22;;;;;;;;;;;24.60;99.90;;;;;;5107314;28;19932;-69
2022/06/26 00:35:48;;;;;;;;;;;24.60;99.90;;;;;;5112037;28;19911;-68
2022/06/26 00:38:14;;;;;;;;;;;24.60;99.90;;;;;;5108153;28;19908;-70
2022/06/26 00:40:40;;;;;;;;;;;24.50;99.90;;;;;;5106249;28;19965;-69
2022/06/26 00:43:06;;;;;;;;;;;24.50;99.90;;;;;;5110287;28;19914;-70
2022/06/26 00:45:32;;;;;;;;;;;24.40;99.90;;;;;;5107343;28;19976;-69
2022/06/26 00:47:58;;;;;;;;;;;24.00;99.90;;;;;;5104391;28;20444;-70
2022/06/26 00:50:24;;;;;;;;;;;23.70;99.90;;;;;;5101602;28;19927;-72
2022/06/26 00:52:50;;;;;;;;;;;23.50;99.90;;;;;;5107597;28;20007;-70
2022/06/26 00:55:16;;;;;;;;;;;23.50;99.90;;;;;;5107967;28;20385;-71
2022/06/26 00:57:42;;;;;;;;;;;23.50;99.90;;;;;;5107379;28;19908;-70
2022/06/26 01:00:09;;;;;;;;;;;23.50;99.90;;;;;;5108431;28;19930;-70
2022/06/26 01:02:35;;;;;;;;;;;23.50;99.90;;;;;;5104172;28;20365;-71
2022/06/26 01:05:01;;;;;;;;;;;23.50;99.90;;;;;;5108386;28;19953;-70
2022/06/26 01:07:27;;;;;;;;;;;23.40;99.90;;;;;;5107441;28;20272;-70
2022/06/26 01:09:52;;;;;;;;;;;23.40;99.90;;;;;;5107003;28;19915;-70
2022/06/26 01:12:18;;;;;;;;;;;23.40;99.90;;;;;;5107625;28;19908;-70
2022/06/26 01:14:44;;;;;;;;;;;23.40;99.90;;;;;;5099205;28;20476;-70
2022/06/26 01:17:10;;;;;;;;;;;23.30;99.90;;;;;;5106924;28;20341;-71
2022/06/26 01:19:36;;;;;;;;;;;23.30;99.90;;;;;;5104881;28;19908;-69
2022/06/26 01:22:02;;;;;;;;;;;23.30;99.90;;;;;;5101748;28;19991;-69
2022/06/26 01:24:27;;;;;;;;;;;23.40;99.90;;;;;;5107065;28;20473;-71
2022/06/26 01:26:53;;;;;;;;;;;23.40;99.90;;;;;;5102919;28;19911;-70
2022/06/26 01:29:18;;;;;;;;;;;23.40;99.90;;;;;;5107924;28;20007;-71
2022/06/26 01:31:44;;;;;;;;;;;23.30;99.90;;;;;;5104694;28;20015;-70
2022/06/26 01:34:11;;;;;;;;;;;23.30;99.90;;;;;;5100886;28;19911;-70
2022/06/26 01:36:37;;;;;;;;;;;23.30;99.90;;;;;;5097909;28;19908;-71
2022/06/26 01:39:03;;;;;;;;;;;23.30;99.90;;;;;;5099822;28;19953;-71
2022/06/26 01:41:28;;;;;;;;;;;23.30;99.90;;;;;;5099755;28;20290;-71
2022/06/26 01:43:54;;;;;;;;;;;23.40;99.90;;;;;;5098654;28;19933;-70
2022/06/26 01:46:22;;;;;;;;;;;23.40;99.90;;;;;;5099242;28;19926;-71
2022/06/26 01:48:48;;;;;;;;;;;23.40;99.90;;;;;;5096782;28;19951;-69
2022/06/26 01:51:14;;;;;;;;;;;23.40;99.90;;;;;;5100247;28;19981;-70
2022/06/26 01:53:39;;;;;;;;;;;23.40;99.90;;;;;;5095693;28;20445;-70
2022/06/26 01:56:05;;;;;;;;;;;23.40;99.90;;;;;;5103547;28;19907;-71
2022/06/26 01:58:32;;;;;;;;;;;23.40;99.90;;;;;;5095807;28;19916;-70
2022/06/26 02:00:58;;;;;;;;;;;23.40;99.90;;;;;;5097951;28;19951;-71
2022/06/26 02:03:24;;;;;;;;;;;23.50;99.90;;;;;;5103128;28;20344;-71
2022/06/26 02:05:50;;;;;;;;;;;23.50;99.90;;;;;;5103523;28;19958;-70
2022/06/26 02:08:16;;;;;;;;;;;23.40;99.90;;;;;;5098879;28;19951;-71
2022/06/26 02:13:42;;;;;;;;;;;23.50;99.90;;;;;;5099943;28;19915;-70
2022/06/26 02:16:28;;;;;;;;;;;23.60;99.90;;;;;;5099303;28;19908;-71
2022/06/26 02:18:55;;;;;;;;;;;23.50;99.90;;;;;;5099034;28;19916;-70
2022/06/26 02:21:23;;;;;;;;;;;23.40;99.90;;;;;;5105273;28;19927;-71
2022/06/26 02:23:50;;;;;;;;;;;23.40;99.90;;;;;;5108939;28;19930;-70
2022/06/26 02:26:17;;;;;;;;;;;23.50;99.90;;;;;;5106065;28;19995;-71
2022/06/26 02:28:43;;;;;;;;;;;23.40;99.90;;;;;;5104334;28;19912;-71
2022/06/26 02:31:09;;;;;;;;;;;23.40;99.90;;;;;;5102939;28;19915;-71
2022/06/26 02:33:35;;;;;;;;;;;23.30;99.90;;;;;;5105374;28;19911;-71
2022/06/26 02:36:01;;;;;;;;;;;23.30;99.90;;;;;;5105626;28;19923;-70
2022/06/26 02:38:27;;;;;;;;;;;23.30;99.90;;;;;;5105835;28;19908;-70
2022/06/26 02:40:52;;;;;;;;;;;23.30;99.90;;;;;;5106107;28;20394;-71
2022/06/26 02:43:19;;;;;;;;;;;23.40;99.90;;;;;;5108087;28;19915;-71
2022/06/26 02:45:45;;;;;;;;;;;23.40;99.90;;;;;;5105924;28;19908;-71
2022/06/26 02:48:11;;;;;;;;;;;23.40;99.90;;;;;;5107253;28;21915;-70
2022/06/26 02:50:37;;;;;;;;;;;23.30;99.90;;;;;;5107498;28;19912;-71
2022/06/26 02:53:04;;;;;;;;;;;23.30;99.90;;;;;;5105977;28;20336;-71
2022/06/26 02:55:29;;;;;;;;;;;23.30;99.90;;;;;;5108081;28;19951;-71
2022/06/26 02:57:55;;;;;;;;;;;23.40;99.90;;;;;;5111903;28;19935;-70
2022/06/26 03:00:21;;;;;;;;;;;23.50;99.90;;;;;;5109714;28;19920;-71
2022/06/26 03:02:46;;;;;;;;;;;23.50;99.90;;;;;;5103652;28;19925;-70
2022/06/26 03:05:12;;;;;;;;;;;23.50;99.90;;;;;;5109936;28;20599;-72
2022/06/26 03:07:38;;;;;;;;;;;23.60;99.90;;;;;;5110364;28;19911;-71
2022/06/26 03:10:04;;;;;;;;;;;23.50;99.90;;;;;;5101708;28;19919;-71
2022/06/26 03:12:29;;;;;;;;;;;23.50;99.90;;;;;;5107425;28;19907;-69
2022/06/26 03:14:55;;;;;;;;;;;23.50;99.90;;;;;;5109364;28;20373;-70
2022/06/26 03:17:21;;;;;;;;;;;23.60;99.90;;;;;;5109574;28;19916;-70
2022/06/26 03:19:47;;;;;;;;;;;23.60;99.90;;;;;;5111199;28;20315;-69
2022/06/26 03:22:12;;;;;;;;;;;23.60;99.90;;;;;;5107804;28;19926;-70
2022/06/26 03:24:38;;;;;;;;;;;23.70;99.90;;;;;;5103548;28;20283;-69
2022/06/26 03:27:04;;;;;;;;;;;23.50;99.90;;;;;;5107747;28;19912;-72
2022/06/26 03:29:29;;;;;;;;;;;23.50;99.90;;;;;;5108801;28;19919;-70
2022/06/26 03:31:55;;;;;;;;;;;23.50;99.90;;;;;;5107727;28;19911;-70
2022/06/26 03:34:21;;;;;;;;;;;23.50;99.90;;;;;;5109263;28;19968;-70
2022/06/26 03:36:47;;;;;;;;;;;23.60;99.90;;;;;;5109432;28;19998;-70
2022/06/26 03:39:12;;;;;;;;;;;23.60;99.90;;;;;;5108839;28;20048;-70
2022/06/26 03:41:38;;;;;;;;;;;23.50;99.90;;;;;;5099536;28;19945;-71
2022/06/26 03:44:04;;;;;;;;;;;23.50;99.90;;;;;;5100015;28;20005;-71
2022/06/26 03:46:29;;;;;;;;;;;23.60;99.90;;;;;;5107521;28;20293;-70
2022/06/26 03:48:55;;;;;;;;;;;23.70;99.90;;;;;;5108945;28;20279;-70
2022/06/26 03:51:21;;;;;;;;;;;23.70;99.90;;;;;;5103172;28;19916;-70
2022/06/26 03:53:46;;;;;;;;;;;23.70;99.90;;;;;;5110998;28;19904;-71
2022/06/26 03:56:12;;;;;;;;;;;23.80;99.90;;;;;;5105368;28;19907;-71
2022/06/26 03:58:38;;;;;;;;;;;23.80;99.90;;;;;;5108044;28;20357;-71
2022/06/26 04:01:03;;;;;;;;;;;23.80;99.90;;;;;;5106649;28;20358;-70
2022/06/26 04:03:29;;;;;;;;;;;23.80;99.90;;;;;;5106240;28;19907;-71
2022/06/26 04:05:54;;;;;;;;;;;23.80;99.90;;;;;;5110171;28;20471;-70
2022/06/26 04:08:20;;;;;;;;;;;23.80;99.90;;;;;;5109434;28;19931;-70
2022/06/26 04:10:46;;;;;;;;;;;23.80;99.90;;;;;;5108619;28;19916;-71
2022/06/26 04:13:12;;;;;;;;;;;23.90;99.90;;;;;;5108479;28;19960;-71
2022/06/26 04:15:38;;;;;;;;;;;23.90;99.90;;;;;;5106622;27;19911;-72
2022/06/26 04:18:04;;;;;;;;;;;23.90;99.90;;;;;;5097917;28;19908;-70
2022/06/26 04:20:31;;;;;;;;;;;24.10;99.90;;;;;;5104569;28;19994;-71
2022/06/26 04:23:00;;;;;;;;;;;24.10;99.90;;;;;;5099099;28;19961;-69
2022/06/26 04:25:27;;;;;;;;;;;24.20;99.90;;;;;;5097441;28;19915;-70
2022/06/26 04:27:53;;;;;;;;;;;24.30;99.90;;;;;;5094929;28;20242;-70
2022/06/26 04:30:19;;;;;;;;;;;24.30;99.90;;;;;;5093582;28;19923;-71
2022/06/26 04:32:44;;;;;;;;;;;24.30;99.90;;;;;;5097127;28;20007;-72
2022/06/26 04:35:10;;;;;;;;;;;24.20;99.90;;;;;;5094061;28;19925;-69
2022/06/26 04:37:36;;;;;;;;;;;24.20;99.90;;;;;;5094325;28;19907;-69
2022/06/26 04:40:03;;;;;;;;;;;24.20;99.90;;;;;;5102793;28;19961;-70
2022/06/26 04:42:28;;;;;;;;;;;24.30;99.90;;;;;;5094466;28;20295;-70
2022/06/26 04:44:54;;;;;;;;;;;24.30;99.90;;;;;;5097040;28;19923;-69
2022/06/26 04:47:19;;;;;;;;;;;24.30;99.90;;;;;;5098271;28;19956;-70
2022/06/26 04:49:45;;;;;;;;;;;24.40;99.90;;;;;;5093274;28;19908;-71
2022/06/26 04:52:10;;;;;;;;;;;24.50;99.90;;;;;;5094576;28;19911;-70
2022/06/26 04:54:36;;;;;;;;;;;24.50;99.90;;;;;;5099386;28;19922;-71
2022/06/26 04:57:02;;;;;;;;;;;24.60;99.90;;;;;;5092340;28;19916;-70
2022/06/26 04:59:27;;;;;;;;;;;24.60;99.90;;;;;;5093345;28;19923;-70
2022/06/26 05:01:53;;;;;;;;;;;24.70;99.90;;;;;;5096331;28;20380;-70
2022/06/26 05:04:19;;;;;;;;;;;24.80;99.90;;;;;;5096212;28;19963;-71
2022/06/26 05:06:44;;;;;;;;;;;24.80;99.90;;;;;;5096631;28;19908;-71
2022/06/26 05:09:10;;;;;;;;;;;24.70;99.90;;;;;;5095960;28;19956;-68
2022/06/26 05:11:35;;;;;;;;;;;24.80;99.90;;;;;;5094492;28;20319;-69
2022/06/26 05:14:01;;;;;;;;;;;24.80;99.90;;;;;;5097585;28;20003;-71
2022/06/26 05:16:27;;;;;;;;;;;24.90;99.90;;;;;;5109172;28;19908;-69
2022/06/26 05:18:52;;;;;;;;;;;25.10;99.90;;;;;;5096148;28;19904;-70
2022/06/26 05:21:18;;;;;;;;;;;25.10;99.90;;;;;;5089819;28;19938;-69
2022/06/26 05:23:43;;;;;;;;;;;25.30;99.90;;;;;;5103101;28;19916;-69
2022/06/26 05:26:09;;;;;;;;;;;25.30;99.90;;;;;;5105578;28;20309;-70
2022/06/26 05:28:35;;;;;;;;;;;25.30;99.90;;;;;;5105052;28;19915;-71
2022/06/26 05:31:01;;;;;;;;;;;25.50;99.90;;;;;;5107305;28;20308;-72
2022/06/26 05:33:26;;;;;;;;;;;25.60;99.90;;;;;;5106846;28;19964;-70
2022/06/26 05:35:52;;;;;;;;;;;25.60;99.90;;;;;;5104501;28;20284;-70
2022/06/26 05:38:18;;;;;;;;;;;25.60;99.90;;;;;;5106851;28;20288;-71
2022/06/26 05:40:43;;;;;;;;;;;25.70;99.90;;;;;;5104137;28;19908;-70
2022/06/26 05:43:09;;;;;;;;;;;25.80;99.90;;;;;;5107640;28;19907;-69
2022/06/26 05:45:34;;;;;;;;;;;25.80;99.90;;;;;;5105107;28;19922;-70
2022/06/26 05:48:01;;;;;;;;;;;25.80;99.90;;;;;;5106671;28;20171;-69
2022/06/26 05:50:26;;;;;;;;;;;25.90;99.90;;;;;;5107723;28;19915;-70
2022/06/26 05:52:52;;;;;;;;;;;25.90;99.90;;;;;;5102658;28;19915;-71
2022/06/26 05:55:18;;;;;;;;;;;26.00;99.90;;;;;;5101185;28;19915;-70
2022/06/26 05:57:43;;;;;;;;;;;26.20;99.90;;;;;;5109402;28;19908;-69
2022/06/26 06:00:09;;;;;;;;;;;26.20;99.90;;;;;;5107129;28;19907;-70
2022/06/26 06:02:35;;;;;;;;;;;26.20;99.90;;;;;;5103133;28;20269;-70
2022/06/26 06:05:00;;;;;;;;;;;26.20;99.90;;;;;;5107853;28;19904;-69
2022/06/26 06:07:26;;;;;;;;;;;26.20;99.90;;;;;;5105829;28;19907;-71
2022/06/26 06:09:52;;;;;;;;;;;26.30;99.90;;;;;;5108883;28;19916;-71
2022/06/26 06:12:18;;;;;;;;;;;26.30;99.90;;;;;;5110015;28;19914;-71
2022/06/26 06:14:44;;;;;;;;;;;26.30;99.90;;;;;;5110489;28;19911;-70
2022/06/26 06:19:54;;;;;;;;;;;26.40;99.90;;;;;;5106200;28;19915;-71
2022/06/26 06:22:20;;;;;;;;;;;26.50;99.90;;;;;;5109287;28;19915;-70
2022/06/26 06:24:46;;;;;;;;;;;26.70;99.90;;;;;;5107936;28;19907;-70
2022/06/26 06:27:12;;;;;;;;;;;26.90;99.90;;;;;;5113229;28;19933;-69
2022/06/26 06:29:38;;;;;;;;;;;27.00;99.90;;;;;;5108027;28;19915;-71
2022/06/26 06:32:19;;;;;;;;;;;27.20;99.90;;;;;;5110645;28;19916;-71
2022/06/26 06:34:46;;;;;;;;;;;27.40;99.90;;;;;;5108293;28;19918;-70
2022/06/26 06:37:20;;;;;;;;;;;27.70;99.90;;;;;;5112416;28;19930;-74
2022/06/26 06:39:46;;;;;;;;;;;27.70;99.90;;;;;;5107685;28;19998;-69
2022/06/26 06:42:13;;;;;;;;;;;27.70;99.90;;;;;;5106564;28;20017;-70
2022/06/26 06:44:39;;;;;;;;;;;27.60;99.90;;;;;;5102139;28;20326;-70
2022/06/26 06:47:05;;;;;;;;;;;27.50;99.90;;;;;;5110948;28;20377;-71
2022/06/26 06:49:31;;;;;;;;;;;27.40;99.90;;;;;;5103015;28;20377;-68
2022/06/26 06:51:56;;;;;;;;;;;27.40;99.90;;;;;;5095911;28;19993;-71
2022/06/26 06:54:22;;;;;;;;;;;27.50;99.90;;;;;;5105207;28;19968;-72
2022/06/26 06:56:48;;;;;;;;;;;27.50;99.90;;;;;;5111403;28;19969;-72
2022/06/26 06:59:13;;;;;;;;;;;27.60;99.90;;;;;;5103244;28;20384;-68
2022/06/26 07:01:39;;;;;;;;;;;27.60;99.90;;;;;;5106395;28;20485;-68
2022/06/26 07:04:06;;;;;;;;;;;27.70;99.90;;;;;;5104310;28;19907;-69
2022/06/26 07:06:32;;;;;;;;;;;27.70;99.90;;;;;;5106841;28;19960;-67
2022/06/26 07:08:57;;;;;;;;;;;27.80;99.90;;;;;;5101232;28;19912;-70
2022/06/26 07:11:23;;;;;;;;;;;27.80;99.90;;;;;;5103317;28;19929;-70
2022/06/26 07:13:48;;;;;;;;;;;27.80;99.90;;;;;;5108085;28;19967;-68
2022/06/26 07:16:14;;;;;;;;;;;27.80;99.90;;;;;;5111993;28;20324;-69
2022/06/26 07:18:40;;;;;;;;;;;27.80;99.90;;;;;;5110144;28;20329;-69
2022/06/26 07:21:07;;;;;;;;;;;27.90;99.90;;;;;;5103826;28;19952;-71
2022/06/26 07:23:33;;;;;;;;;;;27.80;99.90;;;;;;5102250;28;19907;-69
2022/06/26 07:25:58;;;;;;;;;;;27.80;99.90;;;;;;5101138;28;19908;-69
2022/06/26 07:28:24;;;;;;;;;;;27.70;99.90;;;;;;5112497;28;19908;-70
2022/06/26 07:30:50;;;;;;;;;;;27.70;99.90;;;;;;5106883;27;19956;-69
2022/06/26 07:36:00;;;;;;;;;;;27.70;99.90;;;;;;5112182;28;19918;-70
2022/06/26 07:38:25;;;;;;;;;;;27.70;99.90;;;;;;5108713;28;19907;-70
2022/06/26 07:40:52;;;;;;;;;;;27.70;99.90;;;;;;5109660;28;19908;-72
2022/06/26 07:43:17;;;;;;;;;;;27.70;99.90;;;;;;5109681;28;19907;-69
2022/06/26 07:45:43;;;;;;;;;;;27.70;99.90;;;;;;5113248;28;19911;-73
2022/06/26 07:48:09;;;;;;;;;;;27.80;99.90;;;;;;5107151;28;19919;-70
2022/06/26 07:50:34;;;;;;;;;;;27.80;99.90;;;;;;5109819;28;19914;-71
2022/06/26 07:53:00;;;;;;;;;;;27.70;99.90;;;;;;5109695;28;20250;-72
2022/06/26 07:55:25;;;;;;;;;;;27.60;99.90;;;;;;5105402;28;19908;-70
2022/06/26 07:57:51;;;;;;;;;;;27.50;99.90;;;;;;5115475;28;19904;-72
2022/06/26 08:00:17;;;;;;;;;;;27.40;99.90;;;;;;5112115;28;19915;-72
2022/06/26 08:02:42;;;;;;;;;;;27.30;99.90;;;;;;5103902;27;19949;-72
2022/06/26 08:05:08;;;;;;;;;;;27.30;99.90;;;;;;5114274;27;20479;-70
2022/06/26 08:07:34;;;;;;;;;;;27.30;99.90;;;;;;5117646;27;19951;-69
2022/06/26 08:09:59;;;;;;;;;;;27.40;99.90;;;;;;5108299;28;19914;-69
2022/06/26 08:12:25;;;;;;;;;;;27.40;99.90;;;;;;5113881;28;19939;-69
2022/06/26 08:14:51;;;;;;;;;;;27.40;99.90;;;;;;5109033;28;20344;-70
2022/06/26 08:17:17;;;;;;;;;;;27.60;99.90;;;;;;5108606;28;20400;-68
2022/06/26 08:19:42;;;;;;;;;;;27.60;99.90;;;;;;5103939;28;20348;-68
2022/06/26 08:22:08;;;;;;;;;;;27.50;99.90;;;;;;5111524;28;19903;-69
2022/06/26 08:24:36;;;;;;;;;;;27.50;99.90;;;;;;5104757;28;19912;-69
2022/06/26 08:27:02;;;;;;;;;;;27.50;99.90;;;;;;5109871;28;20362;-69
2022/06/26 08:29:28;;;;;;;;;;;27.60;99.90;;;;;;5109212;28;19915;-68
2022/06/26 08:31:54;;;;;;;;;;;27.70;99.90;;;;;;5107514;28;20460;-67
2022/06/26 08:34:19;;;;;;;;;;;27.60;99.90;;;;;;5106136;28;19962;-68
2022/06/26 08:36:45;;;;;;;;;;;27.50;99.90;;;;;;5107773;28;19963;-68
2022/06/26 08:39:11;;;;;;;;;;;27.40;99.90;;;;;;5109527;28;19915;-69
2022/06/26 08:41:44;;;;;;;;;;;27.40;99.90;;;;;;5105500;28;19914;-68
2022/06/26 08:44:10;;;;;;;;;;;27.40;99.90;;;;;;5110333;28;19904;-69
2022/06/26 08:46:40;;;;;;;;;;;27.50;99.90;;;;;;5116154;27;20364;-69
2022/06/26 08:49:09;;;;;;;;;;;27.50;99.90;;;;;;5108643;28;19908;-69
2022/06/26 08:51:37;;;;;;;;;;;27.50;99.90;;;;;;5108296;28;19903;-69
2022/06/26 08:54:04;;;;;;;;;;;27.40;99.90;;;;;;5109849;28;20445;-68
2022/06/26 08:56:29;;;;;;;;;;;27.30;99.90;;;;;;5105835;28;19927;-68
2022/06/26 08:58:55;;;;;;;;;;;27.10;99.90;;;;;;5107000;28;19908;-67
2022/06/26 09:01:21;;;;;;;;;;;27.30;99.90;;;;;;5111315;28;19911;-69
2022/06/26 09:03:46;;;;;;;;;;;27.40;99.90;;;;;;5105951;28;19960;-69
2022/06/26 09:06:12;;;;;;;;;;;27.20;99.90;;;;;;5110242;28;19904;-68
2022/06/26 09:08:44;;;;;;;;;;;27.30;99.90;;;;;;5103528;28;20502;-69
2022/06/26 09:11:10;;;;;;;;;;;27.40;99.90;;;;;;5107550;28;20401;-67
2022/06/26 09:13:40;;;;;;;;;;;27.60;99.90;;;;;;5105723;28;20383;-66
2022/06/26 09:16:06;;;;;;;;;;;27.50;99.90;;;;;;5106029;28;19930;-68
2022/06/26 09:18:36;;;;;;;;;;;27.50;99.90;;;;;;5106316;28;20264;-70
2022/06/26 09:21:04;;;;;;;;;;;27.40;99.90;;;;;;5107131;28;19911;-69
2022/06/26 09:23:30;;;;;;;;;;;27.40;99.90;;;;;;5110345;28;19904;-67
2022/06/26 09:25:56;;;;;;;;;;;27.50;99.90;;;;;;5112864;28;19946;-66
2022/06/26 09:28:22;;;;;;;;;;;27.70;99.90;;;;;;5103452;28;19977;-67
2022/06/26 09:30:56;;;;;;;;;;;27.60;99.90;;;;;;5107883;28;19999;-67
2022/06/26 09:33:28;;;;;;;;;;;27.50;99.90;;;;;;5108182;28;19911;-68
2022/06/26 09:35:54;;;;;;;;;;;27.30;99.90;;;;;;5107177;28;20662;-67
2022/06/26 09:38:22;;;;;;;;;;;27.30;99.90;;;;;;5104523;28;19951;-68
2022/06/26 09:40:48;;;;;;;;;;;27.40;99.90;;;;;;5108298;28;19907;-69
2022/06/26 09:43:15;;;;;;;;;;;27.40;99.90;;;;;;5109572;28;20390;-67
2022/06/26 09:45:41;;;;;;;;;;;27.30;99.90;;;;;;5104935;28;19914;-68
2022/06/26 09:48:08;;;;;;;;;;;27.30;99.90;;;;;;5105257;28;19912;-67
2022/06/26 09:50:34;;;;;;;;;;;27.30;99.90;;;;;;5107675;28;19926;-68
2022/06/26 09:53:00;;;;;;;;;;;27.20;99.90;;;;;;5111246;28;19904;-68
2022/06/26 09:55:26;;;;;;;;;;;27.20;99.90;;;;;;5103240;28;19952;-69
2022/06/26 09:57:52;;;;;;;;;;;27.10;99.90;;;;;;5111445;28;20051;-70
2022/06/26 10:00:17;;;;;;;;;;;27.20;99.90;;;;;;5112604;28;19908;-67
2022/06/26 10:08:13;;;;;;;;;;;27.00;99.90;;;;;;5098479;28;19919;-68
2022/06/26 10:10:40;;;;;;;;;;;27.00;99.90;;;;;;5106447;28;19908;-69
2022/06/26 10:13:07;;;;;;;;;;;27.20;99.90;;;;;;5113172;28;19910;-68
2022/06/26 10:15:56;;;;;;;;;;;27.30;99.90;;;;;;5105793;28;19915;-70
2022/06/26 10:18:33;;;;;;;;;;;27.20;99.90;;;;;;5091963;28;19915;-68
2022/06/26 10:21:06;;;;;;;;;;;27.00;99.90;;;;;;5103166;28;19999;-67
2022/06/26 10:23:32;;;;;;;;;;;27.00;99.90;;;;;;5107172;28;20339;-67
2022/06/26 10:25:58;;;;;;;;;;;27.00;99.90;;;;;;5108993;28;19912;-69
2022/06/26 10:28:24;;;;;;;;;;;27.00;99.90;;;;;;5114290;28;19911;-67
2022/06/26 10:30:49;;;;;;;;;;;27.00;99.90;;;;;;5106209;28;19952;-69
2022/06/26 10:33:16;;;;;;;;;;;27.30;99.90;;;;;;5114815;28;20281;-69
2022/06/26 10:35:44;;;;;;;;;;;27.30;99.90;;;;;;5107774;28;19912;-67
2022/06/26 10:38:31;;;;;;;;;;;27.50;99.90;;;;;;5103095;28;20226;-72
2022/06/26 10:44:02;;;;;;;;;;;27.10;99.90;;;;;;5112316;28;19980;-68
2022/06/26 10:46:39;;;;;;;;;;;27.00;99.90;;;;;;5104562;28;19908;-67
2022/06/26 10:49:08;;;;;;;;;;;26.90;99.90;;;;;;5107851;28;19919;-67
2022/06/26 10:51:34;;;;;;;;;;;26.90;99.90;;;;;;5104271;28;19915;-70
2022/06/26 10:54:01;;;;;;;;;;;26.90;99.90;;;;;;5111458;28;19961;-68
2022/06/26 10:56:26;;;;;;;;;;;26.90;99.90;;;;;;5110565;28;19949;-66
2022/06/26 10:58:58;;;;;;;;;;;26.70;99.90;;;;;;5106919;28;19949;-70
2022/06/26 11:01:24;;;;;;;;;;;26.80;99.90;;;;;;5106926;28;19916;-68
2022/06/26 11:03:49;;;;;;;;;;;27.00;99.90;;;;;;5111534;28;20293;-68
2022/06/26 11:06:15;;;;;;;;;;;27.10;99.90;;;;;;5107408;28;19908;-67
2022/06/26 11:08:48;;;;;;;;;;;27.20;99.90;;;;;;5108013;28;19912;-68
2022/06/26 11:11:43;;;;;;;;;;;27.10;99.90;;;;;;5104411;28;20684;-67
2022/06/26 11:14:09;;;;;;;;;;;27.00;99.90;;;;;;5097482;28;20484;-68
2022/06/26 11:16:35;;;;;;;;;;;27.40;99.90;;;;;;5112171;28;19903;-68
2022/06/26 11:19:03;;;;;;;;;;;27.50;99.90;;;;;;5110904;28;19963;-67
2022/06/26 11:21:29;;;;;;;;;;;27.60;99.90;;;;;;5113702;28;19904;-68
2022/06/26 11:23:54;;;;;;;;;;;27.60;99.90;;;;;;5110222;28;20014;-68
2022/06/26 11:26:21;;;;;;;;;;;27.70;99.90;;;;;;5108596;28;20014;-70
2022/06/26 11:28:53;;;;;;;;;;;27.90;99.90;;;;;;5109611;27;19912;-70
2022/06/26 11:31:20;;;;;;;;;;;27.90;99.90;;;;;;5113807;28;19907;-69
2022/06/26 11:33:45;;;;;;;;;;;27.90;99.90;;;;;;5113126;28;19946;-69
2022/06/26 11:36:12;;;;;;;;;;;27.80;99.90;;;;;;5104901;28;19947;-67
2022/06/26 11:38:38;;;;;;;;;;;27.60;99.90;;;;;;5104905;28;20276;-69
2022/06/26 11:41:05;;;;;;;;;;;27.70;99.90;;;;;;5102477;28;19912;-68
2022/06/26 11:43:31;;;;;;;;;;;27.80;99.90;;;;;;5104721;28;19938;-68
2022/06/26 11:45:57;;;;;;;;;;;27.90;99.90;;;;;;5109995;28;19908;-68
2022/06/26 11:48:23;;;;;;;;;;;28.00;99.90;;;;;;5102745;28;19912;-65
2022/06/26 11:50:50;;;;;;;;;;;28.00;99.90;;;;;;5107526;28;19915;-67
2022/06/26 11:53:23;;;;;;;;;;;28.10;99.90;;;;;;5102745;28;20039;-67
2022/06/26 11:55:50;;;;;;;;;;;28.10;99.90;;;;;;5107896;28;19931;-70
2022/06/26 11:58:16;;;;;;;;;;;28.10;99.90;;;;;;5103255;28;19946;-67
2022/06/26 12:00:42;;;;;;;;;;;28.20;99.90;;;;;;5103812;28;19912;-66
2022/06/26 12:03:10;;;;;;;;;;;28.20;99.90;;;;;;5110116;28;19903;-67
2022/06/26 12:05:36;;;;;;;;;;;28.30;99.90;;;;;;5106076;28;19951;-68
2022/06/26 12:08:01;;;;;;;;;;;28.30;99.90;;;;;;5102644;28;19974;-70
2022/06/26 12:10:36;;;;;;;;;;;28.10;99.90;;;;;;5110714;28;19930;-66
2022/06/26 12:13:01;;;;;;;;;;;28.20;99.90;;;;;;5108878;28;19934;-68
2022/06/26 12:15:29;;;;;;;;;;;28.30;99.90;;;;;;5104941;28;20365;-68
2022/06/26 12:18:00;;;;;;;;;;;28.50;99.90;;;;;;5106545;28;19916;-67
2022/06/26 12:20:25;;;;;;;;;;;28.60;99.90;;;;;;5111115;28;19965;-66
2022/06/26 12:22:52;;;;;;;;;;;28.50;99.90;;;;;;5110569;28;19904;-67
2022/06/26 12:25:25;;;;;;;;;;;28.50;99.90;;;;;;5102966;28;19907;-68
2022/06/26 12:27:51;;;;;;;;;;;28.60;99.90;;;;;;5102296;28;19920;-67
2022/06/26 12:30:20;;;;;;;;;;;28.80;99.90;;;;;;5108905;28;19907;-69
2022/06/26 12:32:46;;;;;;;;;;;28.90;99.90;;;;;;5109816;28;19908;-70
2022/06/26 12:35:11;;;;;;;;;;;28.90;99.90;;;;;;5103834;28;19918;-67
2022/06/26 12:37:37;;;;;;;;;;;28.80;99.90;;;;;;5095984;27;20378;-68
2022/06/26 12:40:03;;;;;;;;;;;28.80;99.90;;;;;;5110500;27;19907;-69
2022/06/26 12:42:29;;;;;;;;;;;28.70;99.90;;;;;;5111267;27;19934;-67
2022/06/26 12:44:55;;;;;;;;;;;28.80;99.90;;;;;;5101468;28;19908;-68
2022/06/26 12:47:20;;;;;;;;;;;29.00;99.90;;;;;;5106506;28;19916;-69
2022/06/26 12:49:46;;;;;;;;;;;29.00;99.90;;;;;;5104235;28;20427;-68
2022/06/26 12:52:11;;;;;;;;;;;29.00;99.90;;;;;;5106849;28;20296;-69
2022/06/26 12:54:37;;;;;;;;;;;28.80;99.90;;;;;;5106485;28;19912;-69
2022/06/26 12:57:03;;;;;;;;;;;28.70;99.90;;;;;;5106963;28;20053;-69
2022/06/26 12:59:28;;;;;;;;;;;28.70;99.90;;;;;;5107208;28;19915;-69
2022/06/26 13:01:54;;;;;;;;;;;28.70;99.90;;;;;;5110221;28;19911;-68
2022/06/26 13:04:20;;;;;;;;;;;28.60;99.90;;;;;;5106349;28;19914;-67
2022/06/26 13:06:45;;;;;;;;;;;28.70;99.90;;;;;;5100550;28;19969;-68
2022/06/26 13:09:11;;;;;;;;;;;28.80;99.90;;;;;;5099442;28;19912;-68
2022/06/26 13:11:48;;;;;;;;;;;28.70;99.90;;;;;;5104093;27;19912;-69
2022/06/26 13:14:21;;;;;;;;;;;28.60;99.90;;;;;;5109813;28;19904;-68
2022/06/26 13:16:54;;;;;;;;;;;28.60;99.90;;;;;;5110361;28;19946;-68
2022/06/26 13:19:21;;;;;;;;;;;28.60;99.90;;;;;;5108929;28;19904;-68
2022/06/26 13:21:47;;;;;;;;;;;28.60;99.90;;;;;;5106057;28;20592;-67
2022/06/26 13:24:17;;;;;;;;;;;28.80;99.90;;;;;;5107446;28;19984;-68
2022/06/26 13:26:42;;;;;;;;;;;28.60;99.90;;;;;;5109709;28;19904;-67
2022/06/26 13:29:08;;;;;;;;;;;28.40;99.90;;;;;;5111334;28;20322;-67
2022/06/26 13:31:34;;;;;;;;;;;28.40;99.90;;;;;;5102790;28;20425;-69
2022/06/26 13:34:00;;;;;;;;;;;28.50;99.90;;;;;;5113664;28;19908;-67
2022/06/26 13:36:26;;;;;;;;;;;28.60;99.90;;;;;;5114780;28;20030;-67
2022/06/26 13:38:52;;;;;;;;;;;28.70;99.90;;;;;;5115325;27;19909;-68
2022/06/26 13:41:18;;;;;;;;;;;28.90;99.90;;;;;;5113271;28;20413;-71
2022/06/26 13:43:44;;;;;;;;;;;29.10;99.90;;;;;;5115653;28;19990;-68
2022/06/26 13:46:09;;;;;;;;;;;29.30;99.90;;;;;;5114395;28;19904;-68
2022/06/26 13:48:35;;;;;;;;;;;29.20;99.90;;;;;;5109955;28;19912;-69
2022/06/26 13:51:00;;;;;;;;;;;29.10;99.90;;;;;;5112500;28;19968;-70
2022/06/26 13:53:26;;;;;;;;;;;29.00;99.90;;;;;;5112041;28;19907;-68
2022/06/26 13:55:51;;;;;;;;;;;29.00;99.90;;;;;;5115034;28;19910;-69
2022/06/26 13:58:18;;;;;;;;;;;28.90;99.90;;;;;;5115137;28;19912;-69
2022/06/26 14:00:44;;;;;;;;;;;28.60;99.90;;;;;;5111432;28;20353;-68
2022/06/26 14:03:09;;;;;;;;;;;28.40;99.90;;;;;;5116084;27;20000;-68
2022/06/26 14:05:42;;;;;;;;;;;28.60;99.90;;;;;;5113888;27;20035;-68
2022/06/26 14:08:18;;;;;;;;;;;28.50;99.90;;;;;;5112964;27;19911;-68
2022/06/26 14:10:54;;;;;;;;;;;28.50;99.90;;;;;;5113935;27;20693;-67
2022/06/26 14:13:22;;;;;;;;;;;28.50;99.90;;;;;;5114080;27;20327;-67
2022/06/26 14:15:47;;;;;;;;;;;28.70;99.90;;;;;;5114885;27;19915;-67
2022/06/26 14:18:13;;;;;;;;;;;28.80;99.90;;;;;;5110628;27;20531;-68
2022/06/26 14:20:39;;;;;;;;;;;29.00;99.90;;;;;;5111711;27;19915;-70
2022/06/26 14:25:55;;;;;;;;;;;29.00;99.90;;;;;;5109393;28;19915;-68
2022/06/26 14:28:21;;;;;;;;;;;28.90;99.90;;;;;;5116216;28;20365;-70
2022/06/26 14:30:47;;;;;;;;;;;29.00;99.90;;;;;;5115736;28;19926;-67
2022/06/26 14:33:16;;;;;;;;;;;29.10;99.90;;;;;;5113087;28;19915;-69